createdAt,value
2023-02-26T00:01:56.325Z,9.18
2023-02-26T00:04:25.730Z,15.93
2023-02-26T00:06:58.323Z,14.35
2023-02-26T00:09:29.386Z,9.05
2023-02-26T00:11:59.389Z,11.02
2023-02-26T00:14:29.652Z,9.50
2023-02-26T00:17:34.968Z,8.15
2023-02-26T00:20:05.787Z,9.15
2023-02-26T00:22:37.850Z,11.10
2023-02-26T00:25:08.607Z,9.20
2023-02-26T00:27:38.931Z,7.88
2023-02-26T00:30:12.661Z,7.97
2023-02-26T00:32:43.923Z,7.82
2023-02-26T00:35:18.038Z,7.53
2023-02-26T00:38:05.428Z,6.80
2023-02-26T00:40:49.981Z,6.88
2023-02-26T00:43:22.866Z,7.28
2023-02-26T00:46:03.880Z,7.97
2023-02-26T00:50:36.291Z,8.48
2023-02-26T00:53:14.489Z,5.90
2023-02-26T00:55:44.051Z,7.90
2023-02-26T00:58:13.445Z,8.43
2023-02-26T01:00:42.818Z,8.70
2023-02-26T01:03:13.050Z,6.80
2023-02-26T01:05:44.728Z,6.43
2023-02-26T01:08:24.373Z,8.20
2023-02-26T01:10:57.327Z,8.43
2023-02-26T01:13:27.426Z,7.18
2023-02-26T01:16:05.627Z,6.97
2023-02-26T01:18:45.359Z,7.88
2023-02-26T01:21:22.793Z,8.55
2023-02-26T01:23:54.087Z,7.15
2023-02-26T01:26:29.365Z,5.38
2023-02-26T01:28:59.626Z,6.75
2023-02-26T01:31:43.010Z,6.50
2023-02-26T01:34:20.233Z,6.20
2023-02-26T01:36:58.326Z,3.90
2023-02-26T01:39:37.538Z,6.72
2023-02-26T01:42:17.430Z,4.45
2023-02-26T01:45:00.160Z,4.30
2023-02-26T01:47:37.889Z,6.97
2023-02-26T01:50:16.892Z,6.63
2023-02-26T01:53:26.166Z,5.10
2023-02-26T01:56:00.003Z,4.95
2023-02-26T01:58:34.005Z,5.38
2023-02-26T02:01:04.478Z,5.75
2023-02-26T02:03:39.170Z,5.70
2023-02-26T02:06:12.237Z,4.30
2023-02-26T02:08:44.100Z,4.68
2023-02-26T02:11:16.871Z,4.23
2023-02-26T02:16:41.981Z,3.42
2023-02-26T02:19:45.313Z,3.33
2023-02-26T02:22:53.247Z,2.95
2023-02-26T02:26:03.346Z,3.30
2023-02-26T02:28:52.111Z,2.83
2023-02-26T02:31:29.957Z,3.00
2023-02-26T02:34:06.685Z,3.40
2023-02-26T02:36:42.994Z,2.95
2023-02-26T02:39:18.275Z,2.78
2023-02-26T02:41:53.691Z,2.88
2023-02-26T02:44:27.808Z,2.10
2023-02-26T02:47:01.088Z,1.92
2023-02-26T02:49:35.986Z,2.78
2023-02-26T02:52:17.070Z,2.38
2023-02-26T02:54:50.947Z,2.15
2023-02-26T02:57:25.815Z,2.50
2023-02-26T03:00:01.047Z,2.55
2023-02-26T03:02:40.917Z,2.40
2023-02-26T03:05:10.636Z,1.85
2023-02-26T03:07:48.391Z,2.45
2023-02-26T03:10:18.655Z,2.15
2023-02-26T03:12:48.046Z,2.85
2023-02-26T03:15:35.030Z,1.92
2023-02-26T03:18:18.747Z,2.17
2023-02-26T03:20:57.691Z,2.08
2023-02-26T03:23:35.469Z,2.45
2023-02-26T03:26:13.896Z,2.13
2023-02-26T03:28:52.476Z,1.42
2023-02-26T03:31:28.642Z,1.52
2023-02-26T03:34:05.072Z,1.52
2023-02-26T03:36:41.156Z,1.80
2023-02-26T03:39:18.374Z,1.95
2023-02-26T03:41:55.162Z,2.15
2023-02-26T03:44:32.121Z,2.38
2023-02-26T03:47:06.675Z,2.70
2023-02-26T03:51:36.715Z,2.00
2023-02-26T03:54:10.376Z,2.60
2023-02-26T03:56:46.312Z,1.60
2023-02-26T03:59:18.139Z,1.95
2023-02-26T04:01:58.315Z,2.07
2023-02-26T04:04:36.459Z,2.00
2023-02-26T04:07:08.152Z,2.33
2023-02-26T04:09:37.994Z,2.22
2023-02-26T04:12:07.694Z,2.17
2023-02-26T04:14:37.130Z,3.00
2023-02-26T04:17:07.083Z,2.55
2023-02-26T04:19:36.437Z,3.50
2023-02-26T04:22:07.346Z,2.65
2023-02-26T04:24:46.942Z,2.75
2023-02-26T04:27:16.295Z,3.05
2023-02-26T04:29:45.665Z,3.08
2023-02-26T04:32:15.335Z,3.92
2023-02-26T04:34:44.841Z,3.67
2023-02-26T04:37:15.743Z,3.00
2023-02-26T04:39:45.073Z,2.83
2023-02-26T04:42:14.352Z,4.07
2023-02-26T04:44:43.690Z,3.17
2023-02-26T04:47:13.114Z,3.15
2023-02-26T04:49:42.750Z,4.57
2023-02-26T04:52:12.250Z,4.88
2023-02-26T04:54:42.998Z,2.83
2023-02-26T04:57:12.326Z,3.97
2023-02-26T04:59:41.715Z,3.65
2023-02-26T05:02:11.672Z,3.10
2023-02-26T05:04:41.278Z,3.58
2023-02-26T05:07:10.809Z,4.18
2023-02-26T05:09:41.731Z,4.32
2023-02-26T05:12:12.354Z,3.60
2023-02-26T05:14:41.783Z,3.15
2023-02-26T05:17:11.344Z,4.53
2023-02-26T05:19:40.699Z,3.85
2023-02-26T05:22:10.131Z,4.88
2023-02-26T05:24:39.475Z,3.88
2023-02-26T05:27:10.282Z,3.35
2023-02-26T05:29:41.352Z,3.75
2023-02-26T05:32:10.878Z,3.55
2023-02-26T05:34:40.434Z,3.17
2023-02-26T05:37:09.851Z,3.88
2023-02-26T05:39:41.326Z,3.63
2023-02-26T05:42:12.383Z,3.72
2023-02-26T05:44:41.779Z,4.38
2023-02-26T05:47:11.151Z,4.10
2023-02-26T05:49:40.383Z,3.40
2023-02-26T05:52:09.865Z,4.28
2023-02-26T05:54:39.084Z,3.80
2023-02-26T05:57:08.464Z,4.13
2023-02-26T05:59:39.636Z,4.22
2023-02-26T06:02:09.237Z,4.15
2023-02-26T06:04:38.745Z,5.25
2023-02-26T06:07:08.065Z,4.25
2023-02-26T06:09:37.466Z,4.03
2023-02-26T06:12:07.642Z,4.47
2023-02-26T06:14:38.755Z,3.80
2023-02-26T06:17:08.788Z,3.63
2023-02-26T06:19:38.309Z,3.03
2023-02-26T06:22:07.694Z,3.63
2023-02-26T06:24:37.128Z,3.95
2023-02-26T06:27:06.849Z,3.97
2023-02-26T06:29:38.272Z,4.07
2023-02-26T06:32:08.766Z,4.75
2023-02-26T06:34:39.453Z,3.92
2023-02-26T06:37:08.915Z,3.92
2023-02-26T06:39:38.245Z,3.78
2023-02-26T06:42:07.777Z,3.60
2023-02-26T06:44:38.659Z,4.10
2023-02-26T06:47:08.114Z,2.83
2023-02-26T06:51:35.231Z,3.67
2023-02-26T06:54:04.894Z,3.80
2023-02-26T06:56:34.565Z,4.10
2023-02-26T06:59:04.460Z,3.55
2023-02-26T07:01:34.255Z,4.47
2023-02-26T07:04:03.676Z,3.70
2023-02-26T07:06:34.594Z,3.47
2023-02-26T07:09:05.437Z,3.67
2023-02-26T07:11:34.912Z,4.20
2023-02-26T07:14:04.386Z,4.20
2023-02-26T07:16:33.805Z,3.03
2023-02-26T07:19:03.245Z,2.78
2023-02-26T07:21:34.090Z,3.88
2023-02-26T07:24:03.847Z,3.70
2023-02-26T07:26:33.273Z,3.58
2023-02-26T07:29:02.736Z,3.70
2023-02-26T07:31:32.477Z,3.65
2023-02-26T07:34:01.810Z,4.45
2023-02-26T07:36:31.732Z,4.68
2023-02-26T07:39:02.447Z,2.60
2023-02-26T07:41:31.850Z,2.97
2023-02-26T07:44:01.772Z,2.28
2023-02-26T07:46:31.154Z,2.30
2023-02-26T07:49:00.549Z,3.10
2023-02-26T07:51:33.166Z,4.15
2023-02-26T07:56:33.037Z,3.15
2023-02-26T07:59:02.431Z,3.33
2023-02-26T08:01:31.797Z,2.42
2023-02-26T08:04:01.382Z,2.65
2023-02-26T08:06:30.866Z,3.00
2023-02-26T08:09:00.463Z,2.97
2023-02-26T08:11:33.030Z,3.58
2023-02-26T08:14:02.528Z,2.85
2023-02-26T08:16:31.987Z,4.38
2023-02-26T08:19:03.085Z,4.10
2023-02-26T08:21:32.505Z,3.78
2023-02-26T08:24:02.252Z,5.05
2023-02-26T08:26:33.131Z,5.07
2023-02-26T08:29:02.439Z,3.63
2023-02-26T08:31:31.865Z,3.25
2023-02-26T08:34:01.336Z,3.50
2023-02-26T08:36:31.137Z,3.67
2023-02-26T08:39:00.629Z,3.45
2023-02-26T08:41:32.601Z,2.90
2023-02-26T08:44:02.493Z,2.90
2023-02-26T08:46:32.044Z,2.88
2023-02-26T08:49:02.692Z,3.35
2023-02-26T08:51:32.355Z,3.97
2023-02-26T08:54:03.397Z,2.40
2023-02-26T08:56:34.167Z,2.70
2023-02-26T08:59:03.568Z,3.08
2023-02-26T09:01:33.492Z,2.67
2023-02-26T09:04:02.852Z,3.47
2023-02-26T09:06:32.663Z,3.58
2023-02-26T09:09:02.053Z,3.92
2023-02-26T09:11:32.834Z,2.60
2023-02-26T09:14:03.736Z,2.75
2023-02-26T09:16:35.674Z,2.28
2023-02-26T09:19:06.088Z,2.47
2023-02-26T09:21:36.008Z,1.92
2023-02-26T09:24:05.879Z,3.15
2023-02-26T09:26:38.526Z,3.40
2023-02-26T09:29:08.054Z,2.50
2023-02-26T09:31:37.474Z,3.33
2023-02-26T09:34:06.972Z,2.50
2023-02-26T09:36:37.706Z,2.42
2023-02-26T09:39:08.911Z,3.35
2023-02-26T09:41:45.468Z,2.33
2023-02-26T09:44:23.429Z,1.75
2023-02-26T09:47:02.093Z,2.17
2023-02-26T09:51:37.829Z,2.00
2023-02-26T09:54:21.410Z,1.80
2023-02-26T09:56:53.055Z,3.40
2023-02-26T09:59:22.794Z,1.53
2023-02-26T10:02:01.367Z,2.13
2023-02-26T10:04:49.821Z,2.50
2023-02-26T10:07:33.299Z,1.60
2023-02-26T10:10:19.572Z,2.10
2023-02-26T10:12:51.002Z,3.55
2023-02-26T10:15:26.291Z,2.55
2023-02-26T10:18:07.854Z,2.20
2023-02-26T10:20:44.995Z,2.45
2023-02-26T10:23:25.496Z,1.83
2023-02-26T10:26:03.633Z,2.05
2023-02-26T10:28:55.073Z,2.00
2023-02-26T10:31:32.131Z,2.47
2023-02-26T10:34:17.132Z,2.67
2023-02-26T10:36:55.299Z,1.98
2023-02-26T10:39:34.644Z,2.42
2023-02-26T10:42:08.755Z,1.85
2023-02-26T10:44:46.309Z,2.53
2023-02-26T10:47:24.586Z,2.47
2023-02-26T10:49:58.572Z,2.40
2023-02-26T10:52:32.848Z,3.00
2023-02-26T10:55:26.794Z,2.70
2023-02-26T10:58:06.903Z,1.52
2023-02-26T11:00:37.279Z,1.98
2023-02-26T11:03:09.692Z,2.38
2023-02-26T11:05:39.000Z,2.78
2023-02-26T11:08:17.060Z,2.03
2023-02-26T11:10:54.135Z,3.15
2023-02-26T11:13:24.355Z,2.50
2023-02-26T11:15:58.132Z,2.80
2023-02-26T11:18:38.552Z,2.78
2023-02-26T11:21:14.269Z,2.83
2023-02-26T11:23:45.912Z,1.88
2023-02-26T11:26:20.721Z,2.60
2023-02-26T11:28:51.960Z,2.90
2023-02-26T11:31:25.628Z,2.70
2023-02-26T11:34:01.376Z,2.22
2023-02-26T11:36:33.515Z,2.90
2023-02-26T11:39:08.270Z,3.08
2023-02-26T11:41:41.886Z,3.28
2023-02-26T11:44:15.728Z,2.38
2023-02-26T11:46:48.575Z,5.25
2023-02-26T11:49:22.303Z,2.47
2023-02-26T11:52:08.372Z,2.40
2023-02-26T11:54:40.997Z,2.97
2023-02-26T11:57:20.441Z,3.50
2023-02-26T11:59:52.725Z,3.08
2023-02-26T12:02:24.710Z,4.15
2023-02-26T12:04:58.684Z,2.90
2023-02-26T12:07:28.315Z,2.20
2023-02-26T12:09:57.608Z,3.17
2023-02-26T12:12:43.919Z,1.88
2023-02-26T12:15:25.533Z,2.22
2023-02-26T12:18:39.378Z,1.58
2023-02-26T12:21:28.409Z,1.95
2023-02-26T12:24:41.922Z,1.80
2023-02-26T12:30:24.017Z,2.08
2023-02-26T12:33:20.102Z,2.55
2023-02-26T12:36:08.070Z,2.03
2023-02-26T12:38:50.035Z,3.72
2023-02-26T12:41:43.300Z,2.45
2023-02-26T12:44:29.942Z,1.85
2023-02-26T12:47:24.812Z,2.47
2023-02-26T12:51:52.080Z,4.13
2023-02-26T12:54:45.217Z,2.67
2023-02-26T12:57:48.930Z,2.03
2023-02-26T13:00:38.999Z,2.50
2023-02-26T13:04:07.970Z,3.67
2023-02-26T13:07:21.089Z,2.47
2023-02-26T13:10:03.425Z,2.67
2023-02-26T13:12:46.308Z,2.30
2023-02-26T13:15:55.049Z,2.00
2023-02-26T13:18:33.042Z,3.80
2023-02-26T13:21:08.049Z,1.60
2023-02-26T13:23:53.434Z,2.17
2023-02-26T13:26:24.336Z,2.63
2023-02-26T13:28:58.896Z,2.05
2023-02-26T13:31:33.339Z,2.70
2023-02-26T13:34:14.262Z,2.88
2023-02-26T13:36:44.755Z,3.42
2023-02-26T13:39:42.040Z,2.42
2023-02-26T13:42:26.674Z,3.60
2023-02-26T13:45:24.772Z,2.67
2023-02-26T13:48:08.769Z,2.10
2023-02-26T13:50:53.933Z,2.30
2023-02-26T13:53:59.789Z,2.47
2023-02-26T13:57:11.417Z,2.42
2023-02-26T13:59:54.652Z,3.42
2023-02-26T14:02:54.865Z,2.35
2023-02-26T14:05:57.373Z,2.33
2023-02-26T14:08:47.364Z,2.53
2023-02-26T14:11:44.829Z,3.13
2023-02-26T14:14:27.493Z,2.13
2023-02-26T14:17:22.740Z,2.88
2023-02-26T14:20:20.352Z,2.67
2023-02-26T14:22:54.367Z,2.00
2023-02-26T14:25:35.661Z,2.20
2023-02-26T14:28:57.836Z,1.98
2023-02-26T14:31:29.143Z,2.22
2023-02-26T14:34:16.068Z,2.40
2023-02-26T14:36:50.484Z,3.40
2023-02-26T14:39:30.280Z,2.47
2023-02-26T14:42:05.368Z,4.50
2023-02-26T14:44:42.009Z,2.85
2023-02-26T14:47:14.606Z,3.38
2023-02-26T14:52:57.729Z,3.15
2023-02-26T14:55:54.295Z,2.00
2023-02-26T14:58:47.372Z,1.92
2023-02-26T15:04:31.964Z,2.25
2023-02-26T15:07:32.960Z,2.45
2023-02-26T15:10:18.750Z,3.65
2023-02-26T15:13:12.197Z,4.20
2023-02-26T15:15:53.770Z,2.88
2023-02-26T15:19:00.069Z,2.30
2023-02-26T15:21:44.339Z,3.58
2023-02-26T15:24:16.852Z,3.20
2023-02-26T15:26:53.612Z,3.55
2023-02-26T15:29:29.371Z,3.50
2023-02-26T15:32:03.486Z,2.92
2023-02-26T15:34:34.732Z,2.40
2023-02-26T15:37:04.802Z,2.85
2023-02-26T15:39:34.314Z,3.53
2023-02-26T15:42:05.785Z,2.20
2023-02-26T15:44:38.639Z,2.50
2023-02-26T15:47:10.761Z,3.00
2023-02-26T15:51:35.656Z,2.42
2023-02-26T15:54:06.400Z,2.77
2023-02-26T15:56:41.482Z,1.70
2023-02-26T15:59:18.184Z,1.92
2023-02-26T16:01:49.807Z,3.10
2023-02-26T16:04:22.003Z,3.50
2023-02-26T16:06:57.111Z,3.40
2023-02-26T16:09:31.595Z,3.38
2023-02-26T16:12:05.682Z,3.58
2023-02-26T16:14:40.890Z,2.78
2023-02-26T16:17:16.451Z,3.17
2023-02-26T16:19:49.227Z,3.03
2023-02-26T16:22:26.154Z,3.33
2023-02-26T16:25:01.487Z,1.90
2023-02-26T16:27:33.108Z,2.58
2023-02-26T16:30:07.393Z,2.42
2023-02-26T16:32:38.313Z,2.95
2023-02-26T16:35:17.755Z,2.40
2023-02-26T16:37:50.201Z,2.83
2023-02-26T16:40:25.542Z,3.13
2023-02-26T16:43:02.606Z,3.45
2023-02-26T16:45:51.118Z,2.60
2023-02-26T16:48:26.096Z,2.90
2023-02-26T16:51:02.266Z,2.97
2023-02-26T16:53:38.032Z,3.58
2023-02-26T16:56:08.252Z,3.15
2023-02-26T16:58:37.891Z,5.22
2023-02-26T17:01:15.970Z,3.50
2023-02-26T17:03:49.589Z,2.92
2023-02-26T17:06:20.736Z,2.25
2023-02-26T17:08:54.901Z,2.42
2023-02-26T17:11:30.061Z,2.00
2023-02-26T17:14:15.601Z,2.85
2023-02-26T17:16:45.086Z,2.47
2023-02-26T17:19:14.825Z,2.17
2023-02-26T17:21:48.227Z,2.33
2023-02-26T17:24:23.265Z,1.92
2023-02-26T17:26:53.364Z,2.42
2023-02-26T17:29:28.376Z,2.25
2023-02-26T17:31:57.996Z,2.38
2023-02-26T17:34:27.658Z,1.88
2023-02-26T17:36:59.838Z,2.75
2023-02-26T17:39:32.076Z,2.33
2023-02-26T17:42:01.418Z,1.92
2023-02-26T17:44:30.843Z,2.05
2023-02-26T17:47:01.281Z,2.15
2023-02-26T17:49:30.739Z,2.22
2023-02-26T17:52:00.144Z,2.03
2023-02-26T17:54:30.850Z,2.13
2023-02-26T17:57:00.802Z,3.75
2023-02-26T17:59:30.108Z,2.40
2023-02-26T18:01:59.426Z,1.85
2023-02-26T18:04:29.692Z,2.53
2023-02-26T18:06:59.615Z,1.45
2023-02-26T18:09:30.352Z,1.73
2023-02-26T18:11:59.569Z,2.20
2023-02-26T18:14:28.989Z,2.08
2023-02-26T18:16:58.470Z,1.48
2023-02-26T18:19:27.888Z,1.85
2023-02-26T18:21:57.333Z,1.40
2023-02-26T18:24:27.176Z,1.23
2023-02-26T18:26:57.861Z,1.63
2023-02-26T18:29:27.915Z,1.38
2023-02-26T18:31:58.450Z,1.60
2023-02-26T18:34:28.085Z,1.40
2023-02-26T18:36:57.470Z,1.27
2023-02-26T18:39:29.988Z,1.38
2023-02-26T18:42:00.849Z,2.20
2023-02-26T18:44:30.217Z,1.48
2023-02-26T18:46:59.782Z,1.88
2023-02-26T18:51:34.766Z,1.55
2023-02-26T18:54:04.058Z,1.80
2023-02-26T18:56:33.449Z,1.70
2023-02-26T18:59:02.870Z,2.38
2023-02-26T19:01:32.638Z,1.65
2023-02-26T19:04:02.076Z,1.35
2023-02-26T19:06:32.876Z,1.45
2023-02-26T19:09:04.559Z,1.23
2023-02-26T19:11:34.279Z,1.55
2023-02-26T19:14:03.684Z,1.25
2023-02-26T19:16:35.558Z,1.25
2023-02-26T19:19:06.898Z,1.50
2023-02-26T19:21:40.438Z,1.48
2023-02-26T19:24:13.252Z,0.82
2023-02-26T19:26:42.952Z,2.03
2023-02-26T19:29:17.170Z,1.60
2023-02-26T19:31:47.158Z,1.25
2023-02-26T19:34:17.294Z,0.88
2023-02-26T19:36:48.511Z,1.20
2023-02-26T19:39:19.880Z,0.85
2023-02-26T19:41:50.713Z,1.85
2023-02-26T19:44:21.126Z,1.10
2023-02-26T19:46:51.524Z,1.13
2023-02-26T19:49:21.418Z,1.08
2023-02-26T19:51:52.251Z,1.42
2023-02-26T19:54:22.507Z,1.13
2023-02-26T19:56:52.181Z,1.77
2023-02-26T19:59:21.821Z,1.00
2023-02-26T20:01:51.344Z,1.33
2023-02-26T20:04:20.956Z,1.33
2023-02-26T20:06:51.743Z,1.58
2023-02-26T20:09:23.119Z,1.48
2023-02-26T20:11:52.631Z,1.45
2023-02-26T20:14:22.152Z,1.13
2023-02-26T20:16:51.802Z,1.55
2023-02-26T20:19:21.796Z,2.33
2023-02-26T20:21:52.560Z,2.42
2023-02-26T20:24:21.972Z,1.33
2023-02-26T20:26:51.469Z,1.55
2023-02-26T20:29:21.772Z,1.27
2023-02-26T20:31:51.568Z,1.10
2023-02-26T20:34:21.364Z,1.40
2023-02-26T20:36:55.669Z,1.27
2023-02-26T20:39:25.771Z,0.57
2023-02-26T20:41:55.182Z,1.35
2023-02-26T20:44:24.558Z,1.00
2023-02-26T20:46:55.116Z,1.35
2023-02-26T20:49:25.785Z,0.65
2023-02-26T20:51:56.529Z,1.42
2023-02-26T20:54:26.070Z,1.58
2023-02-26T20:56:55.478Z,0.88
2023-02-26T20:59:24.767Z,1.58
2023-02-26T21:01:54.286Z,1.15
2023-02-26T21:04:23.563Z,1.63
2023-02-26T21:06:54.371Z,2.22
2023-02-26T21:09:23.775Z,2.25
2023-02-26T21:11:54.133Z,1.50
2023-02-26T21:14:24.650Z,1.80
2023-02-26T21:16:56.920Z,1.23
2023-02-26T21:19:26.272Z,1.30
2023-02-26T21:21:57.067Z,1.80
2023-02-26T21:24:26.707Z,1.65
2023-02-26T21:26:56.121Z,2.05
2023-02-26T21:29:25.833Z,1.58
2023-02-26T21:31:57.324Z,2.13
2023-02-26T21:34:33.854Z,1.67
2023-02-26T21:37:06.269Z,2.00
2023-02-26T21:39:36.877Z,1.35
2023-02-26T21:42:07.790Z,1.88
2023-02-26T21:44:38.062Z,1.75
2023-02-26T21:47:07.497Z,2.67
2023-02-26T21:51:36.338Z,1.60
2023-02-26T21:54:06.154Z,3.90
2023-02-26T21:56:35.630Z,2.00
2023-02-26T21:59:05.038Z,1.95
2023-02-26T22:01:34.596Z,2.00
2023-02-26T22:04:04.128Z,1.88
2023-02-26T22:06:35.250Z,1.25
2023-02-26T22:09:05.616Z,1.58
2023-02-26T22:11:34.974Z,1.33
2023-02-26T22:14:04.678Z,1.63
2023-02-26T22:16:34.436Z,1.38
2023-02-26T22:19:03.912Z,1.17
2023-02-26T22:21:34.899Z,1.65
2023-02-26T22:24:05.454Z,2.45
2023-02-26T22:26:35.065Z,1.13
2023-02-26T22:29:05.531Z,1.13
2023-02-26T22:31:35.395Z,1.67
2023-02-26T22:34:05.021Z,1.88
2023-02-26T22:36:36.535Z,1.30
2023-02-26T22:39:06.734Z,2.08
2023-02-26T22:41:36.971Z,1.98
2023-02-26T22:44:07.352Z,1.30
2023-02-26T22:46:36.893Z,1.35
2023-02-26T22:49:06.201Z,1.80
2023-02-26T22:51:37.166Z,1.15
2023-02-26T22:54:06.731Z,1.65
2023-02-26T22:56:36.082Z,1.98
2023-02-26T22:59:06.411Z,2.00
2023-02-26T23:01:35.883Z,1.35
2023-02-26T23:04:05.467Z,2.05
2023-02-26T23:06:37.042Z,1.77
2023-02-26T23:09:07.277Z,1.52
2023-02-26T23:11:36.732Z,1.60
2023-02-26T23:14:06.045Z,1.33
2023-02-26T23:16:35.481Z,1.50
2023-02-26T23:19:05.194Z,1.25
2023-02-26T23:21:36.508Z,1.38
2023-02-26T23:24:06.364Z,1.30
2023-02-26T23:26:36.072Z,1.67
2023-02-26T23:29:06.498Z,1.60
2023-02-26T23:31:36.286Z,1.30
2023-02-26T23:34:07.269Z,1.45
2023-02-26T23:36:38.042Z,2.10
2023-02-26T23:39:08.870Z,1.67
2023-02-26T23:41:38.349Z,1.48
2023-02-26T23:44:07.920Z,1.98
2023-02-26T23:46:37.844Z,1.58
2023-02-26T23:49:07.307Z,1.52
2023-02-26T23:51:38.725Z,2.22
2023-02-26T23:54:08.194Z,1.65
2023-02-26T23:56:37.833Z,1.67
2023-02-26T23:59:07.322Z,1.83
